createdAt,value
2023-04-25T00:01:48.810Z,0.00
2023-04-25T00:11:49.065Z,0.00
2023-04-25T00:21:49.271Z,0.00
2023-04-25T00:31:49.574Z,0.00
2023-04-25T00:41:49.552Z,0.00
2023-04-25T00:51:51.852Z,0.00
2023-04-25T01:01:49.890Z,0.00
2023-04-25T01:11:50.175Z,0.00
2023-04-25T01:21:50.204Z,0.00
2023-04-25T01:31:50.503Z,0.00
2023-04-25T01:41:50.732Z,0.00
2023-04-25T01:51:51.949Z,0.00
2023-04-25T02:01:51.288Z,0.00
2023-04-25T02:11:51.405Z,0.00
2023-04-25T02:21:51.418Z,0.00
2023-04-25T02:31:51.798Z,0.00
2023-04-25T02:41:51.885Z,0.00
2023-04-25T02:51:52.049Z,0.00
2023-04-25T03:01:52.073Z,0.00
2023-04-25T03:11:52.425Z,0.00
2023-04-25T03:21:52.456Z,0.00
2023-04-25T03:31:52.921Z,0.00
2023-04-25T03:41:52.760Z,0.00
2023-04-25T03:51:54.089Z,0.00
2023-04-25T04:01:53.113Z,0.00
2023-04-25T04:11:53.555Z,0.00
2023-04-25T04:21:53.688Z,4.00
2023-04-25T04:31:54.051Z,12.00
2023-04-25T04:41:53.887Z,16.00
2023-04-25T04:51:54.262Z,24.00
2023-04-25T05:01:54.279Z,44.00
2023-04-25T05:11:54.544Z,104.00
2023-04-25T05:21:54.550Z,92.00
2023-04-25T05:31:54.863Z,188.00
2023-04-25T05:41:54.831Z,304.00
2023-04-25T05:51:55.064Z,392.00
2023-04-25T06:01:55.344Z,588.00
2023-04-25T06:11:55.625Z,536.00
2023-04-25T06:21:55.683Z,440.00
2023-04-25T06:31:55.906Z,472.00
2023-04-25T06:41:56.114Z,452.00
2023-04-25T06:51:56.378Z,528.00
2023-04-25T07:01:56.744Z,1096.00
2023-04-25T07:11:56.852Z,1408.00
2023-04-25T07:21:56.869Z,944.00
2023-04-25T07:31:58.126Z,536.00
2023-04-25T07:41:57.300Z,296.00
2023-04-25T07:51:57.514Z,336.00
2023-04-25T08:01:57.727Z,368.00
2023-04-25T08:11:57.960Z,220.00
2023-04-25T08:21:58.152Z,244.00
2023-04-25T08:31:58.448Z,304.00
2023-04-25T08:41:58.463Z,304.00
2023-04-25T08:52:01.774Z,432.00
2023-04-25T09:01:58.909Z,784.00
2023-04-25T09:11:59.098Z,316.00
2023-04-25T09:21:59.088Z,268.00
2023-04-25T09:31:59.356Z,752.00
2023-04-25T09:41:59.550Z,1192.00
2023-04-25T09:51:59.821Z,944.00
2023-04-25T10:02:00.056Z,540.00
2023-04-25T10:12:00.177Z,700.00
2023-04-25T10:22:00.204Z,1088.00
2023-04-25T10:32:00.549Z,1180.00
2023-04-25T10:42:00.495Z,1848.00
2023-04-25T10:52:00.711Z,3888.00
2023-04-25T11:02:01.062Z,1812.00
2023-04-25T11:12:01.206Z,364.00
2023-04-25T11:22:01.193Z,700.00
2023-04-25T11:32:03.674Z,348.00
2023-04-25T11:42:02.575Z,552.00
2023-04-25T11:52:02.605Z,1028.00
2023-04-25T12:02:01.982Z,1028.00
2023-04-25T12:12:01.981Z,1544.00
2023-04-25T12:22:02.318Z,2428.00
2023-04-25T12:32:02.299Z,1268.00
2023-04-25T12:42:02.576Z,1648.00
2023-04-25T12:52:02.582Z,2124.00
2023-04-25T13:02:02.889Z,1920.00
2023-04-25T13:12:02.860Z,4516.00
2023-04-25T13:22:03.119Z,1280.00
2023-04-25T13:32:03.288Z,856.00
2023-04-25T13:42:03.582Z,384.00
2023-04-25T13:52:03.573Z,232.00
2023-04-25T14:02:03.905Z,480.00
2023-04-25T14:12:03.869Z,508.00
2023-04-25T14:22:04.313Z,588.00
2023-04-25T14:32:04.170Z,504.00
2023-04-25T14:42:04.468Z,572.00
2023-04-25T14:52:04.487Z,880.00
2023-04-25T15:02:04.748Z,768.00
2023-04-25T15:12:04.848Z,732.00
2023-04-25T15:22:05.121Z,636.00
2023-04-25T15:32:05.141Z,616.00
2023-04-25T15:42:06.400Z,616.00
2023-04-25T15:52:05.442Z,656.00
2023-04-25T16:02:05.850Z,504.00
2023-04-25T16:12:05.760Z,252.00
2023-04-25T16:22:06.133Z,352.00
2023-04-25T16:32:06.215Z,1092.00
2023-04-25T16:42:06.386Z,244.00
2023-04-25T16:52:06.578Z,296.00
2023-04-25T17:02:08.162Z,340.00
2023-04-25T17:12:07.037Z,232.00
2023-04-25T17:22:07.434Z,116.00
2023-04-25T17:32:07.507Z,64.00
2023-04-25T17:42:07.709Z,20.00
2023-04-25T17:52:08.144Z,12.00
2023-04-25T18:02:08.304Z,16.00
2023-04-25T18:12:08.256Z,16.00
2023-04-25T18:22:08.554Z,4.00
2023-04-25T18:32:09.586Z,4.00
2023-04-25T18:42:08.981Z,4.00
2023-04-25T18:52:09.134Z,0.00
2023-04-25T19:02:09.383Z,0.00
2023-04-25T19:12:09.501Z,0.00
2023-04-25T19:22:09.708Z,0.00
2023-04-25T19:32:09.809Z,0.00
2023-04-25T19:42:10.745Z,0.00
2023-04-25T19:52:10.177Z,0.00
2023-04-25T20:02:10.365Z,0.00
2023-04-25T20:12:10.364Z,0.00
2023-04-25T20:22:10.492Z,0.00
2023-04-25T20:32:10.870Z,0.00
2023-04-25T20:42:10.719Z,0.00
2023-04-25T20:52:10.948Z,0.00
2023-04-25T21:02:11.249Z,0.00
2023-04-25T21:12:11.229Z,0.00
2023-04-25T21:22:14.558Z,0.00
2023-04-25T21:32:11.601Z,0.00
2023-04-25T21:42:12.052Z,0.00
2023-04-25T21:52:12.063Z,0.00
2023-04-25T22:02:14.603Z,0.00
2023-04-25T22:12:12.396Z,0.00
2023-04-25T22:22:12.689Z,0.00
2023-04-25T22:32:12.706Z,0.00
2023-04-25T22:42:12.964Z,0.00
2023-04-25T22:52:13.161Z,0.00
2023-04-25T23:02:13.521Z,0.00
2023-04-25T23:12:13.535Z,0.00
2023-04-25T23:22:13.826Z,0.00
2023-04-25T23:32:13.852Z,0.00
2023-04-25T23:42:14.164Z,0.00
2023-04-25T23:52:14.151Z,0.00
